createdAt,value
2019-04-03T00:00:08.584Z,45.50
2019-04-03T00:02:37.958Z,45.60
2019-04-03T00:05:07.438Z,45.50
2019-04-03T00:07:36.818Z,45.80
2019-04-03T00:10:07.452Z,45.20
2019-04-03T00:12:37.299Z,45.60
2019-04-03T00:15:07.868Z,45.80
2019-04-03T00:17:37.182Z,45.70
2019-04-03T00:20:07.617Z,45.90
2019-04-03T00:22:38.142Z,45.80
2019-04-03T00:25:07.827Z,45.60
2019-04-03T00:27:37.327Z,45.70
2019-04-03T00:30:07.702Z,46.20
2019-04-03T00:32:37.134Z,45.70
2019-04-03T00:35:07.789Z,45.80
2019-04-03T00:37:37.229Z,45.80
2019-04-03T00:40:07.695Z,45.80
2019-04-03T00:42:36.995Z,45.70
2019-04-03T00:45:07.303Z,46.10
2019-04-03T00:47:36.977Z,45.70
2019-04-03T00:50:07.038Z,46.10
2019-04-03T00:52:36.500Z,46.10
2019-04-03T00:55:06.241Z,45.80
2019-04-03T00:57:35.548Z,46.30
2019-04-03T01:00:08.540Z,46.00
2019-04-03T01:02:37.931Z,46.30
2019-04-03T01:05:07.399Z,46.10
2019-04-03T01:07:36.853Z,46.60
2019-04-03T01:10:06.533Z,46.20
2019-04-03T01:12:35.929Z,46.30
2019-04-03T01:15:05.952Z,46.50
2019-04-03T01:17:35.319Z,46.00
2019-04-03T01:20:06.324Z,46.10
2019-04-03T01:22:37.262Z,46.70
2019-04-03T01:25:08.772Z,46.80
2019-04-03T01:27:41.081Z,46.60
2019-04-03T01:30:10.155Z,46.40
2019-04-03T01:32:39.596Z,47.10
2019-04-03T01:35:09.632Z,47.60
2019-04-03T01:37:39.177Z,47.40
2019-04-03T01:40:08.727Z,47.50
2019-04-03T01:42:38.354Z,47.10
2019-04-03T01:45:08.066Z,47.80
2019-04-03T01:47:37.594Z,48.10
2019-04-03T01:50:07.393Z,48.20
2019-04-03T01:52:36.823Z,48.20
2019-04-03T01:55:06.727Z,48.60
2019-04-03T01:57:36.789Z,48.90
2019-04-03T02:00:07.520Z,48.20
2019-04-03T02:02:38.614Z,48.90
2019-04-03T02:05:08.960Z,48.90
2019-04-03T02:07:38.447Z,49.30
2019-04-03T02:10:17.794Z,49.10
2019-04-03T02:12:50.381Z,49.10
2019-04-03T02:15:21.207Z,49.50
2019-04-03T02:17:50.038Z,49.90
2019-04-03T02:20:19.731Z,50.30
2019-04-03T02:22:49.050Z,50.50
2019-04-03T02:25:18.491Z,50.90
2019-04-03T02:27:47.981Z,50.80
2019-04-03T02:30:17.859Z,50.70
2019-04-03T02:32:47.227Z,50.60
2019-04-03T02:35:16.928Z,51.10
2019-04-03T02:37:49.693Z,51.70
2019-04-03T02:40:17.733Z,51.60
2019-04-03T02:42:47.225Z,51.90
2019-04-03T02:45:16.703Z,52.90
2019-04-03T02:47:46.163Z,53.20
2019-04-03T02:50:23.518Z,53.10
2019-04-03T02:52:56.955Z,54.50
2019-04-03T02:55:24.942Z,54.00
2019-04-03T02:57:54.424Z,54.50
2019-04-03T03:00:23.849Z,53.80
2019-04-03T03:02:53.244Z,54.60
2019-04-03T03:05:22.634Z,55.00
2019-04-03T03:07:52.278Z,55.00
2019-04-03T03:10:21.915Z,55.20
2019-04-03T03:12:52.020Z,55.80
2019-04-03T03:15:22.423Z,56.20
2019-04-03T03:17:54.413Z,56.20
2019-04-03T03:20:24.571Z,56.00
2019-04-03T03:22:55.766Z,57.10
2019-04-03T03:25:25.140Z,57.10
2019-04-03T03:27:55.407Z,56.40
2019-04-03T03:30:40.077Z,56.90
2019-04-03T03:33:22.382Z,57.80
2019-04-03T03:35:34.656Z,58.30
2019-04-03T03:38:00.628Z,58.90
2019-04-03T03:40:31.462Z,58.90
2019-04-03T03:43:05.101Z,60.00
2019-04-03T03:45:33.311Z,61.50
2019-04-03T03:48:02.832Z,61.80
2019-04-03T03:50:36.900Z,62.60
2019-04-03T03:53:11.807Z,63.80
2019-04-03T03:55:39.209Z,63.20
2019-04-03T03:58:12.553Z,64.40
2019-04-03T04:00:40.078Z,66.00
2019-04-03T04:03:11.195Z,65.90
2019-04-03T04:05:40.948Z,66.10
2019-04-03T04:08:11.604Z,67.20
2019-04-03T04:10:42.749Z,65.90
2019-04-03T04:13:15.043Z,67.20
2019-04-03T04:15:44.948Z,67.70
2019-04-03T04:18:15.555Z,68.20
2019-04-03T04:20:46.228Z,70.00
2019-04-03T04:23:16.449Z,71.00
2019-04-03T04:25:46.132Z,70.90
2019-04-03T04:28:15.855Z,70.50
2019-04-03T04:30:48.890Z,70.70
2019-04-03T04:33:18.726Z,71.80
2019-04-03T04:35:51.207Z,71.00
2019-04-03T04:38:19.318Z,72.30
2019-04-03T04:40:48.662Z,73.60
2019-04-03T04:43:18.014Z,73.20
2019-04-03T04:45:47.580Z,73.90
2019-04-03T04:48:20.447Z,73.50
2019-04-03T04:50:48.428Z,72.50
2019-04-03T04:53:17.824Z,71.80
2019-04-03T04:55:47.221Z,74.00
2019-04-03T04:58:16.597Z,75.60
2019-04-03T05:00:47.504Z,74.80
2019-04-03T05:03:16.994Z,75.70
2019-04-03T05:05:46.370Z,74.90
2019-04-03T05:08:15.913Z,75.90
2019-04-03T05:10:45.265Z,76.80
2019-04-03T05:13:15.981Z,74.00
2019-04-03T05:15:45.976Z,73.00
2019-04-03T05:18:15.468Z,76.20
2019-04-03T05:20:44.922Z,77.90
2019-04-03T05:23:14.299Z,76.00
2019-04-03T05:25:43.973Z,76.10
2019-04-03T05:28:13.346Z,76.70
2019-04-03T05:30:42.708Z,78.20
2019-04-03T05:33:11.938Z,75.70
2019-04-03T05:35:41.302Z,74.80
2019-04-03T05:38:10.664Z,75.50
2019-04-03T05:40:40.106Z,74.80
2019-04-03T05:43:09.582Z,75.70
2019-04-03T05:45:41.310Z,73.00
2019-04-03T05:48:12.628Z,73.90
2019-04-03T05:50:41.197Z,74.40
2019-04-03T05:53:10.498Z,74.30
2019-04-03T05:55:41.084Z,74.00
2019-04-03T05:58:11.174Z,73.30
2019-04-03T06:00:40.518Z,70.40
2019-04-03T06:03:10.018Z,69.40
2019-04-03T06:05:39.470Z,71.10
2019-04-03T06:08:08.826Z,69.60
2019-04-03T06:10:38.170Z,66.30
2019-04-03T06:13:07.577Z,65.80
2019-04-03T06:15:37.397Z,66.60
2019-04-03T06:18:06.881Z,66.80
2019-04-03T06:20:36.441Z,66.80
2019-04-03T06:23:05.818Z,66.50
2019-04-03T06:25:35.088Z,64.30
2019-04-03T06:28:04.426Z,64.10
2019-04-03T06:30:33.794Z,63.30
2019-04-03T06:33:03.138Z,63.90
2019-04-03T06:35:34.677Z,62.90
2019-04-03T06:38:03.564Z,61.80
2019-04-03T06:40:35.162Z,60.10
2019-04-03T06:43:04.145Z,61.00
2019-04-03T06:45:33.600Z,60.00
2019-04-03T06:48:05.091Z,61.10
2019-04-03T06:50:34.286Z,60.50
2019-04-03T06:53:03.746Z,57.90
2019-04-03T06:55:34.662Z,58.20
2019-04-03T06:58:04.230Z,59.00
2019-04-03T07:00:33.708Z,59.20
2019-04-03T07:03:03.971Z,57.30
2019-04-03T07:05:33.786Z,57.20
2019-04-03T07:08:05.412Z,59.00
2019-04-03T07:10:36.187Z,58.70
2019-04-03T07:13:05.279Z,57.30
2019-04-03T07:15:34.640Z,58.00
2019-04-03T07:18:05.966Z,57.90
2019-04-03T07:20:35.185Z,55.90
2019-04-03T07:23:04.566Z,56.10
2019-04-03T07:25:34.678Z,56.30
2019-04-03T07:28:04.610Z,57.60
2019-04-03T07:30:33.925Z,54.90
2019-04-03T07:33:05.550Z,53.80
2019-04-03T07:35:34.382Z,53.90
2019-04-03T07:38:03.780Z,53.80
2019-04-03T07:40:33.374Z,53.80
2019-04-03T07:43:02.689Z,53.50
2019-04-03T07:45:33.033Z,53.90
2019-04-03T07:48:05.988Z,53.60
2019-04-03T07:50:36.544Z,52.90
2019-04-03T07:53:05.091Z,52.80
2019-04-03T07:55:35.238Z,52.80
2019-04-03T07:58:04.699Z,52.40
2019-04-03T08:00:34.432Z,51.90
2019-04-03T08:03:03.764Z,52.20
2019-04-03T08:05:33.211Z,52.30
2019-04-03T08:08:02.738Z,52.00
2019-04-03T08:10:32.385Z,50.90
2019-04-03T08:13:01.835Z,51.20
2019-04-03T08:15:31.213Z,50.50
2019-04-03T08:18:00.662Z,50.00
2019-04-03T08:20:31.342Z,50.10
2019-04-03T08:23:01.043Z,50.60
2019-04-03T08:25:30.438Z,49.30
2019-04-03T08:27:59.815Z,48.80
2019-04-03T08:30:29.426Z,49.70
2019-04-03T08:32:58.812Z,48.90
2019-04-03T08:35:28.622Z,47.50
2019-04-03T08:37:58.219Z,46.60
2019-04-03T08:40:27.744Z,47.20
2019-04-03T08:42:59.303Z,46.30
2019-04-03T08:45:28.666Z,47.30
2019-04-03T08:47:58.172Z,46.80
2019-04-03T08:50:28.818Z,47.60
2019-04-03T08:52:58.559Z,47.10
2019-04-03T08:55:28.077Z,46.20
2019-04-03T08:57:57.473Z,47.30
2019-04-03T09:00:26.981Z,45.50
2019-04-03T09:02:56.396Z,45.70
2019-04-03T09:05:26.110Z,45.60
2019-04-03T09:07:56.538Z,45.60
2019-04-03T09:10:26.423Z,45.20
2019-04-03T09:12:55.945Z,44.90
2019-04-03T09:15:25.807Z,45.10
2019-04-03T09:17:56.422Z,45.10
2019-04-03T09:20:25.749Z,44.30
2019-04-03T09:22:55.141Z,44.50
2019-04-03T09:25:24.763Z,44.40
2019-04-03T09:27:54.236Z,44.30
2019-04-03T09:30:23.813Z,43.10
2019-04-03T09:32:53.688Z,43.20
2019-04-03T09:35:23.853Z,43.40
2019-04-03T09:37:53.255Z,42.50
2019-04-03T09:40:22.686Z,42.20
2019-04-03T09:42:52.063Z,41.80
2019-04-03T09:45:21.466Z,41.60
2019-04-03T09:47:51.103Z,41.30
2019-04-03T09:50:22.743Z,41.60
2019-04-03T09:52:54.118Z,42.40
2019-04-03T09:55:23.074Z,41.70
2019-04-03T09:57:53.491Z,41.20
2019-04-03T10:00:25.004Z,41.20
2019-04-03T10:02:54.391Z,40.50
2019-04-03T10:05:23.845Z,40.00
2019-04-03T10:07:53.462Z,39.00
2019-04-03T10:10:25.668Z,39.30
2019-04-03T10:12:54.655Z,39.70
2019-04-03T10:15:24.334Z,39.00
2019-04-03T10:17:53.658Z,38.10
2019-04-03T10:20:23.351Z,38.50
2019-04-03T10:22:53.993Z,38.20
2019-04-03T10:25:23.858Z,37.70
2019-04-03T10:27:53.238Z,37.60
2019-04-03T10:30:23.098Z,38.10
2019-04-03T10:32:52.529Z,37.70
2019-04-03T10:35:21.883Z,37.30
2019-04-03T10:37:51.270Z,37.30
2019-04-03T10:40:23.543Z,37.10
2019-04-03T10:42:51.898Z,36.70
2019-04-03T10:45:21.377Z,37.10
2019-04-03T10:47:50.715Z,36.60
2019-04-03T10:50:20.558Z,36.20
2019-04-03T10:52:50.052Z,36.90
2019-04-03T10:55:19.590Z,36.00
2019-04-03T10:57:48.891Z,36.20
2019-04-03T11:00:18.791Z,35.50
2019-04-03T11:02:48.197Z,36.00
2019-04-03T11:05:18.474Z,35.80
2019-04-03T11:07:48.025Z,35.80
2019-04-03T11:10:17.771Z,36.00
2019-04-03T11:12:47.123Z,35.80
2019-04-03T11:15:16.987Z,36.00
2019-04-03T11:17:48.476Z,35.00
2019-04-03T11:20:17.531Z,35.20
2019-04-03T11:22:48.287Z,35.30
2019-04-03T11:25:18.292Z,34.70
2019-04-03T11:27:47.830Z,34.60
2019-04-03T11:30:23.375Z,34.60
2019-04-03T11:32:48.942Z,34.70
2019-04-03T11:35:21.068Z,34.20
2019-04-03T11:37:49.633Z,33.80
2019-04-03T11:40:19.660Z,34.10
2019-04-03T11:42:49.062Z,34.10
2019-04-03T11:45:19.307Z,33.80
2019-04-03T11:47:48.967Z,34.50
2019-04-03T11:50:18.907Z,34.70
2019-04-03T11:52:48.221Z,34.30
2019-04-03T11:55:17.853Z,34.40
2019-04-03T11:57:48.694Z,34.00
2019-04-03T12:00:22.178Z,33.40
2019-04-03T12:02:51.578Z,33.20
2019-04-03T12:05:21.592Z,33.40
2019-04-03T12:07:51.291Z,33.30
2019-04-03T12:10:20.751Z,33.60
2019-04-03T12:12:50.265Z,34.00
2019-04-03T12:15:21.566Z,34.50
2019-04-03T12:17:51.185Z,34.30
2019-04-03T12:20:20.569Z,34.40
2019-04-03T12:22:51.999Z,33.90
2019-04-03T12:25:21.565Z,33.70
2019-04-03T12:27:51.077Z,34.30
2019-04-03T12:30:20.669Z,33.30
2019-04-03T12:32:50.350Z,32.70
2019-04-03T12:35:19.916Z,33.00
2019-04-03T12:37:50.187Z,32.40
2019-04-03T12:40:20.541Z,32.50
2019-04-03T12:42:50.101Z,32.70
2019-04-03T12:45:20.429Z,32.90
2019-04-03T12:47:49.899Z,32.60
2019-04-03T12:50:19.490Z,32.10
2019-04-03T12:52:48.809Z,32.50
2019-04-03T12:55:18.372Z,32.80
2019-04-03T12:57:48.289Z,32.30
2019-04-03T13:00:18.817Z,32.30
2019-04-03T13:02:48.245Z,31.30
2019-04-03T13:05:17.818Z,30.50
2019-04-03T13:07:47.711Z,30.30
2019-04-03T13:10:17.944Z,30.10
2019-04-03T13:12:47.469Z,31.30
2019-04-03T13:15:18.452Z,31.30
2019-04-03T13:17:48.079Z,31.30
2019-04-03T13:20:17.730Z,30.80
2019-04-03T13:22:47.590Z,30.70
2019-04-03T13:25:20.277Z,30.00
2019-04-03T13:27:48.288Z,29.50
2019-04-03T13:30:19.950Z,30.00
2019-04-03T13:32:58.680Z,29.70
2019-04-03T13:35:20.721Z,30.00
2019-04-03T13:37:50.162Z,29.50
2019-04-03T13:40:19.877Z,29.80
2019-04-03T13:42:49.951Z,29.40
2019-04-03T13:45:19.588Z,29.50
2019-04-03T13:47:49.307Z,28.90
2019-04-03T13:50:21.831Z,29.00
2019-04-03T13:52:50.595Z,29.00
2019-04-03T13:55:20.147Z,28.80
2019-04-03T13:57:50.831Z,28.90
2019-04-03T14:00:23.514Z,29.00
2019-04-03T14:02:52.700Z,28.90
2019-04-03T14:05:22.268Z,29.00
2019-04-03T14:07:51.647Z,29.00
2019-04-03T14:10:21.168Z,28.90
2019-04-03T14:12:50.945Z,28.60
2019-04-03T14:15:21.367Z,28.30
2019-04-03T14:17:57.057Z,29.20
2019-04-03T14:20:23.747Z,28.70
2019-04-03T14:22:53.713Z,29.20
2019-04-03T14:25:25.603Z,29.40
2019-04-03T14:27:54.566Z,28.90
2019-04-03T14:30:23.927Z,29.00
2019-04-03T14:32:54.654Z,29.80
2019-04-03T14:35:45.182Z,29.80
2019-04-03T14:37:58.318Z,29.80
2019-04-03T14:40:26.908Z,29.70
2019-04-03T14:42:58.725Z,29.80
2019-04-03T14:45:28.276Z,29.80
2019-04-03T14:47:57.713Z,29.00
2019-04-03T14:50:27.177Z,28.70
2019-04-03T14:52:57.194Z,28.50
2019-04-03T14:55:28.689Z,28.00
2019-04-03T14:57:57.938Z,27.90
2019-04-03T15:00:30.882Z,29.20
2019-04-03T15:02:58.781Z,28.30
2019-04-03T15:05:28.730Z,28.90
2019-04-03T15:07:58.600Z,29.70
2019-04-03T15:10:30.743Z,29.00
2019-04-03T15:12:59.239Z,28.40
2019-04-03T15:15:28.880Z,28.00
2019-04-03T15:17:58.889Z,27.90
2019-04-03T15:20:28.482Z,27.50
2019-04-03T15:22:57.965Z,27.50
2019-04-03T15:25:27.291Z,27.70
2019-04-03T15:27:58.687Z,28.30
2019-04-03T15:30:28.011Z,28.70
2019-04-03T15:32:57.957Z,28.60
2019-04-03T15:35:27.785Z,28.10
2019-04-03T15:37:57.154Z,28.00
2019-04-03T15:40:29.932Z,28.30
2019-04-03T15:42:59.335Z,28.30
2019-04-03T15:45:28.841Z,29.00
2019-04-03T15:47:58.527Z,29.10
2019-04-03T15:50:30.197Z,28.70
2019-04-03T15:52:59.232Z,29.00
2019-04-03T15:55:28.874Z,29.40
2019-04-03T15:57:58.415Z,29.70
2019-04-03T16:00:28.417Z,30.00
2019-04-03T16:02:58.062Z,31.00
2019-04-03T16:05:30.110Z,29.60
2019-04-03T16:07:58.786Z,29.60
2019-04-03T16:10:28.095Z,29.80
2019-04-03T16:12:57.729Z,30.30
2019-04-03T16:15:27.709Z,29.80
2019-04-03T16:17:57.630Z,30.00
2019-04-03T16:20:27.599Z,30.20
2019-04-03T16:22:57.110Z,30.80
2019-04-03T16:25:26.628Z,30.20
2019-04-03T16:27:56.602Z,31.10
2019-04-03T16:30:26.384Z,31.30
2019-04-03T16:32:57.514Z,31.90
2019-04-03T16:35:27.020Z,31.90
2019-04-03T16:37:57.461Z,32.10
2019-04-03T16:40:27.410Z,32.20
2019-04-03T16:42:56.739Z,32.50
2019-04-03T16:45:26.182Z,32.80
2019-04-03T16:47:55.722Z,32.90
2019-04-03T16:50:27.182Z,33.20
2019-04-03T16:52:56.487Z,33.50
2019-04-03T16:55:26.206Z,33.50
2019-04-03T16:57:55.686Z,34.00
2019-04-03T17:00:25.603Z,34.00
2019-04-03T17:02:56.124Z,34.10
2019-04-03T17:05:26.094Z,34.30
2019-04-03T17:07:55.656Z,34.60
2019-04-03T17:10:25.082Z,34.70
2019-04-03T17:12:54.842Z,34.60
2019-04-03T17:15:24.652Z,34.80
2019-04-03T17:17:54.178Z,34.80
2019-04-03T17:20:24.397Z,34.80
2019-04-03T17:22:54.843Z,34.80
2019-04-03T17:25:26.976Z,35.10
2019-04-03T17:27:58.088Z,35.80
2019-04-03T17:30:26.759Z,35.30
2019-04-03T17:32:56.444Z,35.30
2019-04-03T17:35:25.926Z,35.20
2019-04-03T17:37:58.991Z,35.10
2019-04-03T17:40:26.495Z,34.90
2019-04-03T17:42:55.938Z,34.90
2019-04-03T17:45:25.406Z,35.30
2019-04-03T17:47:55.002Z,35.30
2019-04-03T17:50:24.341Z,35.50
2019-04-03T17:52:53.754Z,35.60
2019-04-03T17:55:23.216Z,36.00
2019-04-03T17:57:52.510Z,35.80
2019-04-03T18:00:22.553Z,36.10
2019-04-03T18:02:52.035Z,36.20
2019-04-03T18:05:21.492Z,36.10
2019-04-03T18:07:51.247Z,36.20
2019-04-03T18:10:20.926Z,36.30
2019-04-03T18:12:52.391Z,36.60
2019-04-03T18:15:21.550Z,36.50
2019-04-03T18:17:51.025Z,36.70
2019-04-03T18:20:21.408Z,36.50
2019-04-03T18:22:51.268Z,36.60
2019-04-03T18:25:20.719Z,36.60
2019-04-03T18:27:50.206Z,37.20
2019-04-03T18:30:20.272Z,36.60
2019-04-03T18:32:49.743Z,36.80
2019-04-03T18:35:19.292Z,36.70
2019-04-03T18:37:48.727Z,36.80
2019-04-03T18:40:18.407Z,36.80
2019-04-03T18:42:50.202Z,36.60
2019-04-03T18:45:25.007Z,36.60
2019-04-03T18:47:51.095Z,36.80
2019-04-03T18:50:20.842Z,36.60
2019-04-03T18:52:50.520Z,36.60
2019-04-03T18:55:19.950Z,36.60
2019-04-03T18:57:50.238Z,36.50
2019-04-03T19:00:22.016Z,36.60
2019-04-03T19:02:51.514Z,36.80
2019-04-03T19:05:21.018Z,36.60
2019-04-03T19:07:50.470Z,36.50
2019-04-03T19:10:23.016Z,36.80
2019-04-03T19:12:51.281Z,36.80
2019-04-03T19:15:20.785Z,36.50
2019-04-03T19:17:59.411Z,36.60
2019-04-03T19:20:21.350Z,36.80
2019-04-03T19:23:01.900Z,36.60
2019-04-03T19:25:21.802Z,36.60
2019-04-03T19:27:51.372Z,36.60
2019-04-03T19:30:21.030Z,36.60
2019-04-03T19:32:50.498Z,36.80
2019-04-03T19:35:19.940Z,36.60
2019-04-03T19:37:49.498Z,36.90
2019-04-03T19:40:19.063Z,36.80
2019-04-03T19:42:48.982Z,36.80
2019-04-03T19:45:20.668Z,36.80
2019-04-03T19:47:50.107Z,37.00
2019-04-03T19:50:19.656Z,36.90
2019-04-03T19:52:49.002Z,36.80
2019-04-03T19:55:19.493Z,37.30
2019-04-03T19:57:49.157Z,37.00
2019-04-03T20:00:18.880Z,37.00
2019-04-03T20:02:48.299Z,37.30
2019-04-03T20:05:18.963Z,37.30
2019-04-03T20:07:49.011Z,37.30
2019-04-03T20:10:18.403Z,37.30
2019-04-03T20:12:47.825Z,37.30
2019-04-03T20:15:17.313Z,37.50
2019-04-03T20:17:46.695Z,37.90
2019-04-03T20:20:16.345Z,38.10
2019-04-03T20:22:45.773Z,39.10
2019-04-03T20:25:15.384Z,39.00
2019-04-03T20:27:47.212Z,39.20
2019-04-03T20:30:16.160Z,39.30
2019-04-03T20:32:45.626Z,39.30
2019-04-03T20:35:18.060Z,39.50
2019-04-03T20:37:46.167Z,39.30
2019-04-03T20:40:15.636Z,40.40
2019-04-03T20:42:45.065Z,39.60
2019-04-03T20:45:14.465Z,39.60
2019-04-03T20:47:43.874Z,39.80
2019-04-03T20:50:16.080Z,39.70
2019-04-03T20:52:46.288Z,39.80
2019-04-03T20:55:16.363Z,39.90
2019-04-03T20:57:55.326Z,40.00
2019-04-03T21:00:19.163Z,40.00
2019-04-03T21:02:48.688Z,40.20
2019-04-03T21:05:18.921Z,40.10
2019-04-03T21:07:48.464Z,40.20
2019-04-03T21:10:17.958Z,40.10
2019-04-03T21:12:47.631Z,40.30
2019-04-03T21:15:17.004Z,40.20
2019-04-03T21:17:49.608Z,40.40
2019-04-03T21:20:17.660Z,40.50
2019-04-03T21:22:47.046Z,40.60
2019-04-03T21:25:16.414Z,40.70
2019-04-03T21:27:45.778Z,40.60
2019-04-03T21:30:15.517Z,40.60
2019-04-03T21:32:44.952Z,40.70
2019-04-03T21:35:14.365Z,41.50
2019-04-03T21:37:43.763Z,40.60
2019-04-03T21:40:15.274Z,40.40
2019-04-03T21:42:44.481Z,40.60
2019-04-03T21:45:14.077Z,40.80
2019-04-03T21:47:43.547Z,41.00
2019-04-03T21:50:12.889Z,41.00
2019-04-03T21:52:42.363Z,41.00
2019-04-03T21:55:11.695Z,41.20
2019-04-03T21:57:41.174Z,41.20
2019-04-03T22:00:14.234Z,41.30
2019-04-03T22:02:45.135Z,41.60
2019-04-03T22:05:14.860Z,41.60
2019-04-03T22:07:44.269Z,41.70
2019-04-03T22:10:13.637Z,41.80
2019-04-03T22:12:43.089Z,42.10
2019-04-03T22:15:14.441Z,42.10
2019-04-03T22:17:43.862Z,42.20
2019-04-03T22:20:13.541Z,42.10
2019-04-03T22:22:43.117Z,42.40
2019-04-03T22:25:12.542Z,42.40
2019-04-03T22:27:42.897Z,42.50
2019-04-03T22:30:13.126Z,42.50
2019-04-03T22:32:42.756Z,42.80
2019-04-03T22:35:12.237Z,42.80
2019-04-03T22:37:41.562Z,42.70
2019-04-03T22:40:11.013Z,42.90
2019-04-03T22:42:40.502Z,43.10
2019-04-03T22:45:09.876Z,43.30
2019-04-03T22:47:39.337Z,43.40
2019-04-03T22:50:08.775Z,43.40
2019-04-03T22:52:39.939Z,43.40
2019-04-03T22:55:09.521Z,43.60
2019-04-03T22:57:38.994Z,43.50
2019-04-03T23:00:08.869Z,43.30
2019-04-03T23:02:38.244Z,43.50
2019-04-03T23:05:07.990Z,43.80
2019-04-03T23:07:37.362Z,44.00
2019-04-03T23:10:06.879Z,44.20
2019-04-03T23:12:36.463Z,44.40
2019-04-03T23:15:08.614Z,45.00
2019-04-03T23:17:37.871Z,44.90
2019-04-03T23:20:07.663Z,45.20
2019-04-03T23:22:37.126Z,45.20
2019-04-03T23:25:06.896Z,45.20
2019-04-03T23:27:36.298Z,45.80
2019-04-03T23:30:08.254Z,45.50
2019-04-03T23:32:37.663Z,46.10
2019-04-03T23:35:07.333Z,46.10
2019-04-03T23:37:36.866Z,46.00
2019-04-03T23:40:06.860Z,46.70
2019-04-03T23:42:37.921Z,46.50
2019-04-03T23:45:07.848Z,47.00
2019-04-03T23:47:37.403Z,46.90
2019-04-03T23:50:07.073Z,48.10
2019-04-03T23:52:36.530Z,47.50
2019-04-03T23:55:06.401Z,47.70
2019-04-03T23:57:35.958Z,47.80
